sensor_id;sensor_type;location;lat;lon;timestamp;P1;durP1;ratioP1;P2;durP2;ratioP2
2564;SDS011;1292;48.020;7.822;2023-07-20T05:46:23;3.23;;;2.93;;
2564;SDS011;1292;48.020;7.822;2023-07-20T05:48:50;3.37;;;3.07;;
2564;SDS011;1292;48.020;7.822;2023-07-20T05:51:17;3.63;;;3.30;;
2564;SDS011;1292;48.020;7.822;2023-07-20T05:53:44;6.30;;;3.63;;
2564;SDS011;1292;48.020;7.822;2023-07-20T05:56:10;9.80;;;3.47;;
2564;SDS011;1292;48.020;7.822;2023-07-20T05:58:37;4.10;;;3.70;;
2564;SDS011;1292;48.020;7.822;2023-07-20T06:01:04;4.63;;;3.20;;
2564;SDS011;1292;48.020;7.822;2023-07-20T06:03:33;7.60;;;3.77;;
2564;SDS011;1292;48.020;7.822;2023-07-20T06:06:00;4.80;;;3.70;;
2564;SDS011;1292;48.020;7.822;2023-07-20T06:08:27;5.10;;;3.80;;
2564;SDS011;1292;48.020;7.822;2023-07-20T06:10:54;5.80;;;4.13;;
2564;SDS011;1292;48.020;7.822;2023-07-20T06:13:21;16.40;;;3.87;;
2564;SDS011;1292;48.020;7.822;2023-07-20T06:15:48;9.40;;;4.17;;
2564;SDS011;1292;48.020;7.822;2023-07-20T06:18:15;23.20;;;5.20;;
2564;SDS011;1292;48.020;7.822;2023-07-20T06:20:44;22.23;;;5.40;;
2564;SDS011;1292;48.020;7.822;2023-07-20T06:23:15;35.87;;;5.87;;
2564;SDS011;1292;48.020;7.822;2023-07-20T06:25:41;32.73;;;6.47;;
2564;SDS011;1292;48.020;7.822;2023-07-20T06:28:08;13.20;;;5.67;;
2564;SDS011;1292;48.020;7.822;2023-07-20T06:30:35;11.43;;;4.97;;
2564;SDS011;1292;48.020;7.822;2023-07-20T06:33:02;25.13;;;5.50;;
2564;SDS011;1292;48.020;7.822;2023-07-20T06:35:29;20.43;;;5.27;;
2564;SDS011;1292;48.020;7.822;2023-07-20T06:37:57;14.43;;;5.20;;
2564;SDS011;1292;48.020;7.822;2023-07-20T06:40:24;11.23;;;4.27;;
2564;SDS011;1292;48.020;7.822;2023-07-20T06:42:51;10.73;;;4.13;;
2564;SDS011;1292;48.020;7.822;2023-07-20T06:45:18;11.77;;;4.20;;
2564;SDS011;1292;48.020;7.822;2023-07-20T06:47:44;14.13;;;4.23;;
2564;SDS011;1292;48.020;7.822;2023-07-20T06:50:11;9.23;;;3.67;;
2564;SDS011;1292;48.020;7.822;2023-07-20T06:52:38;10.53;;;4.30;;
2564;SDS011;1292;48.020;7.822;2023-07-20T06:55:08;6.50;;;3.93;;
2564;SDS011;1292;48.020;7.822;2023-07-20T06:57:34;4.87;;;3.20;;
2564;SDS011;1292;48.020;7.822;2023-07-20T07:00:01;6.50;;;2.90;;
2564;SDS011;1292;48.020;7.822;2023-07-20T07:02:29;3.50;;;2.83;;
2564;SDS011;1292;48.020;7.822;2023-07-20T07:04:56;3.27;;;2.97;;
2564;SDS011;1292;48.020;7.822;2023-07-20T07:07:22;3.63;;;2.50;;
2564;SDS011;1292;48.020;7.822;2023-07-20T07:09:49;3.80;;;2.63;;
2564;SDS011;1292;48.020;7.822;2023-07-20T07:12:17;4.83;;;3.27;;
2564;SDS011;1292;48.020;7.822;2023-07-20T07:14:44;4.80;;;2.73;;
2564;SDS011;1292;48.020;7.822;2023-07-20T07:17:11;4.00;;;3.47;;
2564;SDS011;1292;48.020;7.822;2023-07-20T07:19:38;6.83;;;3.67;;
2564;SDS011;1292;48.020;7.822;2023-07-20T07:22:05;5.70;;;2.83;;
2564;SDS011;1292;48.020;7.822;2023-07-20T07:24:32;4.30;;;2.70;;
2564;SDS011;1292;48.020;7.822;2023-07-20T07:26:59;3.20;;;2.87;;
2564;SDS011;1292;48.020;7.822;2023-07-20T07:29:28;3.70;;;3.40;;
2564;SDS011;1292;48.020;7.822;2023-07-20T07:31:55;3.20;;;2.20;;
2564;SDS011;1292;48.020;7.822;2023-07-20T07:34:22;4.23;;;3.10;;
2564;SDS011;1292;48.020;7.822;2023-07-20T07:36:49;5.67;;;3.43;;
2564;SDS011;1292;48.020;7.822;2023-07-20T07:39:16;5.00;;;3.10;;
2564;SDS011;1292;48.020;7.822;2023-07-20T07:41:43;5.17;;;3.10;;
2564;SDS011;1292;48.020;7.822;2023-07-20T07:44:10;7.63;;;2.97;;
2564;SDS011;1292;48.020;7.822;2023-07-20T07:46:38;7.20;;;4.17;;
2564;SDS011;1292;48.020;7.822;2023-07-20T07:49:05;3.80;;;2.80;;
2564;SDS011;1292;48.020;7.822;2023-07-20T07:51:31;2.93;;;2.50;;
2564;SDS011;1292;48.020;7.822;2023-07-20T07:53:58;2.90;;;2.70;;
2564;SDS011;1292;48.020;7.822;2023-07-20T07:56:25;4.13;;;3.30;;
2564;SDS011;1292;48.020;7.822;2023-07-20T07:58:52;4.70;;;3.10;;
2564;SDS011;1292;48.020;7.822;2023-07-20T08:01:19;7.50;;;3.53;;
2564;SDS011;1292;48.020;7.822;2023-07-20T08:03:48;5.00;;;3.03;;
2564;SDS011;1292;48.020;7.822;2023-07-20T08:06:14;5.50;;;3.40;;
2564;SDS011;1292;48.020;7.822;2023-07-20T08:08:41;4.40;;;3.50;;
2564;SDS011;1292;48.020;7.822;2023-07-20T08:11:08;3.20;;;2.77;;
2564;SDS011;1292;48.020;7.822;2023-07-20T08:13:35;7.63;;;3.00;;
2564;SDS011;1292;48.020;7.822;2023-07-20T08:16:02;4.20;;;3.80;;
2564;SDS011;1292;48.020;7.822;2023-07-20T08:18:29;5.90;;;3.40;;
2564;SDS011;1292;48.020;7.822;2023-07-20T08:20:58;5.50;;;3.47;;
2564;SDS011;1292;48.020;7.822;2023-07-20T08:23:25;2.90;;;2.70;;
2564;SDS011;1292;48.020;7.822;2023-07-20T08:25:52;4.43;;;2.70;;
2564;SDS011;1292;48.020;7.822;2023-07-20T08:28:19;7.40;;;3.40;;
2564;SDS011;1292;48.020;7.822;2023-07-20T08:30:47;5.27;;;3.20;;
2564;SDS011;1292;48.020;7.822;2023-07-20T08:33:15;4.63;;;3.30;;
2564;SDS011;1292;48.020;7.822;2023-07-20T08:35:44;4.93;;;3.20;;
2564;SDS011;1292;48.020;7.822;2023-07-20T08:38:12;3.63;;;3.10;;
2564;SDS011;1292;48.020;7.822;2023-07-20T08:40:42;5.30;;;2.70;;
2564;SDS011;1292;48.020;7.822;2023-07-20T08:43:11;3.83;;;2.83;;
2564;SDS011;1292;48.020;7.822;2023-07-20T08:45:39;3.87;;;2.30;;
2564;SDS011;1292;48.020;7.822;2023-07-20T08:48:07;4.23;;;3.60;;
2564;SDS011;1292;48.020;7.822;2023-07-20T08:50:35;3.60;;;2.80;;
2564;SDS011;1292;48.020;7.822;2023-07-20T08:53:02;3.80;;;2.70;;
2564;SDS011;1292;48.020;7.822;2023-07-20T08:55:30;3.87;;;2.73;;
2564;SDS011;1292;48.020;7.822;2023-07-20T08:57:58;3.23;;;2.67;;
2564;SDS011;1292;48.020;7.822;2023-07-20T09:00:26;5.23;;;3.00;;
2564;SDS011;1292;48.020;7.822;2023-07-20T09:02:54;1.90;;;1.70;;
2564;SDS011;1292;48.020;7.822;2023-07-20T09:05:22;3.40;;;2.63;;
2564;SDS011;1292;48.020;7.822;2023-07-20T09:07:50;2.30;;;2.10;;
2564;SDS011;1292;48.020;7.822;2023-07-20T09:10:17;5.90;;;2.60;;
2564;SDS011;1292;48.020;7.822;2023-07-20T09:12:47;3.60;;;2.27;;
2564;SDS011;1292;48.020;7.822;2023-07-20T09:15:14;3.33;;;2.20;;
2564;SDS011;1292;48.020;7.822;2023-07-20T09:17:45;2.40;;;1.70;;
2564;SDS011;1292;48.020;7.822;2023-07-20T09:20:14;2.30;;;2.10;;
2564;SDS011;1292;48.020;7.822;2023-07-20T09:22:41;8.30;;;2.47;;
2564;SDS011;1292;48.020;7.822;2023-07-20T09:25:10;4.40;;;2.23;;
2564;SDS011;1292;48.020;7.822;2023-07-20T09:27:38;3.80;;;2.73;;
2564;SDS011;1292;48.020;7.822;2023-07-20T09:30:08;3.47;;;2.43;;
2564;SDS011;1292;48.020;7.822;2023-07-20T09:32:38;5.20;;;2.50;;
2564;SDS011;1292;48.020;7.822;2023-07-20T09:35:06;3.10;;;2.13;;
2564;SDS011;1292;48.020;7.822;2023-07-20T09:37:38;2.23;;;2.03;;
2564;SDS011;1292;48.020;7.822;2023-07-20T09:40:06;3.97;;;2.60;;
2564;SDS011;1292;48.020;7.822;2023-07-20T09:42:34;3.53;;;2.43;;
2564;SDS011;1292;48.020;7.822;2023-07-20T09:45:03;3.90;;;2.60;;
2564;SDS011;1292;48.020;7.822;2023-07-20T09:47:35;2.83;;;2.50;;
2564;SDS011;1292;48.020;7.822;2023-07-20T09:50:03;3.13;;;2.70;;
2564;SDS011;1292;48.020;7.822;2023-07-20T09:52:35;7.83;;;2.40;;
2564;SDS011;1292;48.020;7.822;2023-07-20T09:55:06;2.40;;;2.20;;
2564;SDS011;1292;48.020;7.822;2023-07-20T09:57:34;3.37;;;2.50;;
2564;SDS011;1292;48.020;7.822;2023-07-20T10:00:02;3.60;;;2.57;;
2564;SDS011;1292;48.020;7.822;2023-07-20T10:02:40;2.93;;;2.57;;
2564;SDS011;1292;48.020;7.822;2023-07-20T10:05:08;3.27;;;2.37;;
2564;SDS011;1292;48.020;7.822;2023-07-20T10:07:40;2.10;;;1.90;;
2564;SDS011;1292;48.020;7.822;2023-07-20T10:10:11;3.43;;;2.83;;
2564;SDS011;1292;48.020;7.822;2023-07-20T10:12:42;3.77;;;2.50;;
2564;SDS011;1292;48.020;7.822;2023-07-20T10:15:11;2.03;;;1.93;;
2564;SDS011;1292;48.020;7.822;2023-07-20T10:17:45;3.30;;;2.27;;
2564;SDS011;1292;48.020;7.822;2023-07-20T10:20:19;2.33;;;1.90;;
2564;SDS011;1292;48.020;7.822;2023-07-20T10:22:47;5.27;;;2.37;;
2564;SDS011;1292;48.020;7.822;2023-07-20T10:25:15;3.70;;;2.40;;
2564;SDS011;1292;48.020;7.822;2023-07-20T10:27:45;9.63;;;3.17;;
2564;SDS011;1292;48.020;7.822;2023-07-20T10:30:13;2.17;;;2.00;;
2564;SDS011;1292;48.020;7.822;2023-07-20T10:32:40;3.00;;;2.70;;
2564;SDS011;1292;48.020;7.822;2023-07-20T10:35:16;2.30;;;2.10;;
2564;SDS011;1292;48.020;7.822;2023-07-20T10:37:47;2.37;;;2.17;;
2564;SDS011;1292;48.020;7.822;2023-07-20T10:40:25;2.23;;;1.90;;
2564;SDS011;1292;48.020;7.822;2023-07-20T10:42:57;3.50;;;2.10;;
2564;SDS011;1292;48.020;7.822;2023-07-20T10:48:18;3.13;;;2.40;;
2564;SDS011;1292;48.020;7.822;2023-07-20T10:53:45;3.90;;;2.43;;
2564;SDS011;1292;48.020;7.822;2023-07-20T10:56:15;2.17;;;2.03;;
2564;SDS011;1292;48.020;7.822;2023-07-20T10:58:46;3.47;;;2.30;;
2564;SDS011;1292;48.020;7.822;2023-07-20T11:01:13;2.07;;;1.97;;
2564;SDS011;1292;48.020;7.822;2023-07-20T11:03:42;2.50;;;2.30;;
2564;SDS011;1292;48.020;7.822;2023-07-20T11:09:06;2.57;;;2.10;;
2564;SDS011;1292;48.020;7.822;2023-07-20T11:11:36;5.03;;;2.10;;
2564;SDS011;1292;48.020;7.822;2023-07-20T11:14:05;2.33;;;2.10;;
2564;SDS011;1292;48.020;7.822;2023-07-20T11:16:34;2.70;;;2.50;;
2564;SDS011;1292;48.020;7.822;2023-07-20T11:19:02;5.43;;;2.97;;
2564;SDS011;1292;48.020;7.822;2023-07-20T11:21:36;2.47;;;2.27;;
2564;SDS011;1292;48.020;7.822;2023-07-20T11:24:04;2.40;;;2.00;;
2564;SDS011;1292;48.020;7.822;2023-07-20T11:26:39;2.07;;;1.90;;
2564;SDS011;1292;48.020;7.822;2023-07-20T11:29:07;2.33;;;2.13;;
2564;SDS011;1292;48.020;7.822;2023-07-20T11:31:37;2.10;;;1.90;;
2564;SDS011;1292;48.020;7.822;2023-07-20T11:34:05;2.07;;;1.90;;
2564;SDS011;1292;48.020;7.822;2023-07-20T11:36:33;3.70;;;1.93;;
2564;SDS011;1292;48.020;7.822;2023-07-20T11:39:02;2.83;;;2.37;;
2564;SDS011;1292;48.020;7.822;2023-07-20T11:41:29;6.13;;;2.03;;
2564;SDS011;1292;48.020;7.822;2023-07-20T11:43:57;4.83;;;2.10;;
2564;SDS011;1292;48.020;7.822;2023-07-20T11:46:24;2.70;;;2.10;;
2564;SDS011;1292;48.020;7.822;2023-07-20T11:48:55;2.53;;;2.33;;
2564;SDS011;1292;48.020;7.822;2023-07-20T11:51:23;3.20;;;1.90;;
2564;SDS011;1292;48.020;7.822;2023-07-20T11:53:52;3.53;;;1.80;;
2564;SDS011;1292;48.020;7.822;2023-07-20T11:56:19;6.40;;;2.63;;
2564;SDS011;1292;48.020;7.822;2023-07-20T11:58:46;3.17;;;2.60;;
2564;SDS011;1292;48.020;7.822;2023-07-20T12:01:13;2.90;;;2.00;;
2564;SDS011;1292;48.020;7.822;2023-07-20T12:03:41;2.73;;;2.30;;
2564;SDS011;1292;48.020;7.822;2023-07-20T12:06:09;2.70;;;2.50;;
2564;SDS011;1292;48.020;7.822;2023-07-20T12:08:38;2.57;;;2.13;;
2564;SDS011;1292;48.020;7.822;2023-07-20T12:11:07;4.10;;;1.97;;
2564;SDS011;1292;48.020;7.822;2023-07-20T12:13:38;4.20;;;2.80;;
2564;SDS011;1292;48.020;7.822;2023-07-20T12:16:06;4.40;;;2.53;;
2564;SDS011;1292;48.020;7.822;2023-07-20T12:18:37;2.80;;;2.10;;
2564;SDS011;1292;48.020;7.822;2023-07-20T12:21:05;2.27;;;1.97;;
2564;SDS011;1292;48.020;7.822;2023-07-20T12:23:37;2.30;;;1.90;;
2564;SDS011;1292;48.020;7.822;2023-07-20T12:26:09;4.10;;;2.57;;
2564;SDS011;1292;48.020;7.822;2023-07-20T12:28:39;2.20;;;2.00;;
2564;SDS011;1292;48.020;7.822;2023-07-20T12:31:07;3.63;;;2.30;;
2564;SDS011;1292;48.020;7.822;2023-07-20T12:33:35;3.53;;;2.20;;
2564;SDS011;1292;48.020;7.822;2023-07-20T12:36:01;5.50;;;2.57;;
2564;SDS011;1292;48.020;7.822;2023-07-20T12:38:29;2.57;;;2.30;;
2564;SDS011;1292;48.020;7.822;2023-07-20T12:40:56;2.60;;;2.40;;
2564;SDS011;1292;48.020;7.822;2023-07-20T12:43:26;2.90;;;2.03;;
2564;SDS011;1292;48.020;7.822;2023-07-20T12:45:53;2.63;;;1.97;;
2564;SDS011;1292;48.020;7.822;2023-07-20T12:48:20;4.03;;;2.20;;
2564;SDS011;1292;48.020;7.822;2023-07-20T12:50:47;2.60;;;2.17;;
2564;SDS011;1292;48.020;7.822;2023-07-20T12:53:14;6.20;;;2.83;;
2564;SDS011;1292;48.020;7.822;2023-07-20T12:55:42;2.90;;;2.00;;
2564;SDS011;1292;48.020;7.822;2023-07-20T12:58:09;2.53;;;2.20;;
2564;SDS011;1292;48.020;7.822;2023-07-20T13:00:39;5.43;;;2.27;;
2564;SDS011;1292;48.020;7.822;2023-07-20T13:03:06;2.43;;;2.00;;
2564;SDS011;1292;48.020;7.822;2023-07-20T13:05:33;2.03;;;1.93;;
2564;SDS011;1292;48.020;7.822;2023-07-20T13:08:01;2.00;;;1.90;;
2564;SDS011;1292;48.020;7.822;2023-07-20T13:10:28;4.00;;;1.90;;
2564;SDS011;1292;48.020;7.822;2023-07-20T13:12:56;4.77;;;2.00;;
2564;SDS011;1292;48.020;7.822;2023-07-20T13:15:24;2.93;;;2.63;;
2564;SDS011;1292;48.020;7.822;2023-07-20T13:17:57;2.03;;;1.87;;
2564;SDS011;1292;48.020;7.822;2023-07-20T13:20:25;4.17;;;2.77;;
2564;SDS011;1292;48.020;7.822;2023-07-20T13:22:53;3.23;;;2.33;;
2564;SDS011;1292;48.020;7.822;2023-07-20T13:25:19;4.27;;;2.20;;
2564;SDS011;1292;48.020;7.822;2023-07-20T13:27:46;2.17;;;1.80;;
2564;SDS011;1292;48.020;7.822;2023-07-20T13:30:13;6.27;;;2.33;;
2564;SDS011;1292;48.020;7.822;2023-07-20T13:32:41;3.43;;;1.60;;
2564;SDS011;1292;48.020;7.822;2023-07-20T13:35:10;6.63;;;2.53;;
2564;SDS011;1292;48.020;7.822;2023-07-20T13:37:37;1.97;;;1.83;;
2564;SDS011;1292;48.020;7.822;2023-07-20T13:40:04;2.43;;;2.10;;
2564;SDS011;1292;48.020;7.822;2023-07-20T13:42:33;6.30;;;2.47;;
2564;SDS011;1292;48.020;7.822;2023-07-20T13:45:00;2.70;;;1.87;;
2564;SDS011;1292;48.020;7.822;2023-07-20T13:47:28;3.20;;;2.07;;
2564;SDS011;1292;48.020;7.822;2023-07-20T13:49:55;11.03;;;2.50;;
2564;SDS011;1292;48.020;7.822;2023-07-20T13:52:23;2.87;;;1.90;;
2564;SDS011;1292;48.020;7.822;2023-07-20T13:54:50;2.37;;;1.90;;
2564;SDS011;1292;48.020;7.822;2023-07-20T13:57:17;2.33;;;2.13;;
2564;SDS011;1292;48.020;7.822;2023-07-20T13:59:44;2.63;;;2.27;;
2564;SDS011;1292;48.020;7.822;2023-07-20T14:02:10;2.70;;;2.37;;
2564;SDS011;1292;48.020;7.822;2023-07-20T14:04:38;5.63;;;2.30;;
2564;SDS011;1292;48.020;7.822;2023-07-20T14:07:05;3.70;;;2.40;;
2564;SDS011;1292;48.020;7.822;2023-07-20T14:09:33;2.63;;;2.03;;
2564;SDS011;1292;48.020;7.822;2023-07-20T14:12:00;5.63;;;2.00;;
2564;SDS011;1292;48.020;7.822;2023-07-20T14:14:27;4.83;;;2.10;;
2564;SDS011;1292;48.020;7.822;2023-07-20T14:16:54;2.20;;;2.03;;
2564;SDS011;1292;48.020;7.822;2023-07-20T14:19:21;6.83;;;1.87;;
2564;SDS011;1292;48.020;7.822;2023-07-20T14:21:47;8.10;;;2.30;;
2564;SDS011;1292;48.020;7.822;2023-07-20T14:24:14;3.20;;;1.90;;
2564;SDS011;1292;48.020;7.822;2023-07-20T14:26:42;2.17;;;1.97;;
2564;SDS011;1292;48.020;7.822;2023-07-20T14:29:09;2.63;;;2.40;;
2564;SDS011;1292;48.020;7.822;2023-07-20T14:31:36;2.30;;;2.10;;
2564;SDS011;1292;48.020;7.822;2023-07-20T14:34:03;5.23;;;2.10;;
2564;SDS011;1292;48.020;7.822;2023-07-20T14:36:30;3.63;;;1.90;;
2564;SDS011;1292;48.020;7.822;2023-07-20T14:38:57;1.93;;;1.63;;
2564;SDS011;1292;48.020;7.822;2023-07-20T14:41:24;1.90;;;1.70;;
2564;SDS011;1292;48.020;7.822;2023-07-20T14:43:52;2.20;;;2.00;;
2564;SDS011;1292;48.020;7.822;2023-07-20T14:46:19;3.00;;;2.03;;
2564;SDS011;1292;48.020;7.822;2023-07-20T14:48:46;2.70;;;2.00;;
2564;SDS011;1292;48.020;7.822;2023-07-20T14:51:13;2.23;;;2.00;;
2564;SDS011;1292;48.020;7.822;2023-07-20T14:53:39;2.30;;;2.10;;
2564;SDS011;1292;48.020;7.822;2023-07-20T14:56:06;4.57;;;2.20;;
2564;SDS011;1292;48.020;7.822;2023-07-20T14:58:34;1.90;;;1.80;;
2564;SDS011;1292;48.020;7.822;2023-07-20T15:01:02;3.03;;;2.17;;
2564;SDS011;1292;48.020;7.822;2023-07-20T15:03:29;6.03;;;2.33;;
2564;SDS011;1292;48.020;7.822;2023-07-20T15:05:56;3.53;;;2.13;;
2564;SDS011;1292;48.020;7.822;2023-07-20T15:08:23;2.50;;;2.00;;
2564;SDS011;1292;48.020;7.822;2023-07-20T15:10:50;2.40;;;2.20;;
2564;SDS011;1292;48.020;7.822;2023-07-20T15:13:17;2.43;;;2.00;;
2564;SDS011;1292;48.020;7.822;2023-07-20T15:15:44;3.30;;;2.00;;
2564;SDS011;1292;48.020;7.822;2023-07-20T15:18:12;2.20;;;2.00;;
2564;SDS011;1292;48.020;7.822;2023-07-20T15:20:39;2.23;;;1.57;;
2564;SDS011;1292;48.020;7.822;2023-07-20T15:23:05;2.53;;;2.33;;
2564;SDS011;1292;48.020;7.822;2023-07-20T15:25:32;1.70;;;1.60;;
2564;SDS011;1292;48.020;7.822;2023-07-20T15:27:59;2.50;;;2.17;;
2564;SDS011;1292;48.020;7.822;2023-07-20T15:30:26;2.50;;;2.00;;
2564;SDS011;1292;48.020;7.822;2023-07-20T15:32:54;3.03;;;1.90;;
2564;SDS011;1292;48.020;7.822;2023-07-20T15:35:23;4.03;;;2.10;;
2564;SDS011;1292;48.020;7.822;2023-07-20T15:37:50;2.47;;;2.10;;
2564;SDS011;1292;48.020;7.822;2023-07-20T15:40:17;4.90;;;1.77;;
2564;SDS011;1292;48.020;7.822;2023-07-20T15:42:43;3.90;;;2.30;;
2564;SDS011;1292;48.020;7.822;2023-07-20T15:45:11;2.90;;;1.70;;
2564;SDS011;1292;48.020;7.822;2023-07-20T15:47:37;2.87;;;2.10;;
2564;SDS011;1292;48.020;7.822;2023-07-20T15:50:05;3.27;;;1.80;;
2564;SDS011;1292;48.020;7.822;2023-07-20T15:52:33;2.23;;;2.03;;
2564;SDS011;1292;48.020;7.822;2023-07-20T15:55:00;1.90;;;1.80;;
2564;SDS011;1292;48.020;7.822;2023-07-20T15:57:29;2.30;;;2.10;;
2564;SDS011;1292;48.020;7.822;2023-07-20T15:59:56;3.50;;;2.07;;
2564;SDS011;1292;48.020;7.822;2023-07-20T16:02:23;2.00;;;1.90;;
2564;SDS011;1292;48.020;7.822;2023-07-20T16:04:50;3.17;;;2.40;;
2564;SDS011;1292;48.020;7.822;2023-07-20T16:07:16;2.57;;;2.37;;
2564;SDS011;1292;48.020;7.822;2023-07-20T16:09:45;3.17;;;2.80;;
2564;SDS011;1292;48.020;7.822;2023-07-20T16:12:11;2.70;;;2.23;;
2564;SDS011;1292;48.020;7.822;2023-07-20T16:14:39;1.60;;;1.50;;
2564;SDS011;1292;48.020;7.822;2023-07-20T16:17:06;2.77;;;1.73;;
2564;SDS011;1292;48.020;7.822;2023-07-20T16:19:32;2.07;;;1.53;;
2564;SDS011;1292;48.020;7.822;2023-07-20T16:21:59;4.47;;;2.70;;
2564;SDS011;1292;48.020;7.822;2023-07-20T16:24:26;2.07;;;1.87;;
2564;SDS011;1292;48.020;7.822;2023-07-20T16:26:54;2.10;;;1.90;;
2564;SDS011;1292;48.020;7.822;2023-07-20T16:29:21;4.97;;;1.73;;
2564;SDS011;1292;48.020;7.822;2023-07-20T16:31:49;2.80;;;2.13;;
2564;SDS011;1292;48.020;7.822;2023-07-20T16:34:16;2.60;;;1.90;;
2564;SDS011;1292;48.020;7.822;2023-07-20T16:36:43;4.33;;;2.13;;
2564;SDS011;1292;48.020;7.822;2023-07-20T16:39:09;2.40;;;2.20;;
2564;SDS011;1292;48.020;7.822;2023-07-20T16:41:36;2.33;;;2.13;;
2564;SDS011;1292;48.020;7.822;2023-07-20T16:44:04;4.97;;;1.97;;
2564;SDS011;1292;48.020;7.822;2023-07-20T16:46:32;1.80;;;1.70;;
2564;SDS011;1292;48.020;7.822;2023-07-20T16:48:59;2.30;;;2.10;;
2564;SDS011;1292;48.020;7.822;2023-07-20T16:51:30;1.90;;;1.80;;
2564;SDS011;1292;48.020;7.822;2023-07-20T16:53:58;2.33;;;2.13;;
2564;SDS011;1292;48.020;7.822;2023-07-20T16:56:25;2.07;;;1.80;;
2564;SDS011;1292;48.020;7.822;2023-07-20T16:58:52;2.03;;;1.83;;
2564;SDS011;1292;48.020;7.822;2023-07-20T17:01:25;2.23;;;2.03;;
2564;SDS011;1292;48.020;7.822;2023-07-20T17:03:53;3.53;;;1.80;;
2564;SDS011;1292;48.020;7.822;2023-07-20T17:06:20;4.40;;;2.57;;
2564;SDS011;1292;48.020;7.822;2023-07-20T17:08:47;1.93;;;1.77;;
2564;SDS011;1292;48.020;7.822;2023-07-20T17:11:13;2.03;;;1.70;;
2564;SDS011;1292;48.020;7.822;2023-07-20T17:13:40;2.40;;;2.10;;
2564;SDS011;1292;48.020;7.822;2023-07-20T17:16:07;2.50;;;2.30;;
2564;SDS011;1292;48.020;7.822;2023-07-20T17:18:35;1.90;;;1.80;;
2564;SDS011;1292;48.020;7.822;2023-07-20T17:21:02;1.90;;;1.73;;
2564;SDS011;1292;48.020;7.822;2023-07-20T17:23:30;4.90;;;1.50;;
2564;SDS011;1292;48.020;7.822;2023-07-20T17:25:57;3.53;;;2.20;;
2564;SDS011;1292;48.020;7.822;2023-07-20T17:28:24;2.10;;;1.90;;
2564;SDS011;1292;48.020;7.822;2023-07-20T17:30:58;4.43;;;2.33;;
2564;SDS011;1292;48.020;7.822;2023-07-20T17:33:26;1.80;;;1.70;;
2564;SDS011;1292;48.020;7.822;2023-07-20T17:35:54;1.97;;;1.80;;
2564;SDS011;1292;48.020;7.822;2023-07-20T17:38:22;1.77;;;1.67;;
2564;SDS011;1292;48.020;7.822;2023-07-20T17:40:49;1.83;;;1.60;;
2564;SDS011;1292;48.020;7.822;2023-07-20T17:43:17;2.77;;;1.60;;
2564;SDS011;1292;48.020;7.822;2023-07-20T17:45:47;2.77;;;2.20;;
2564;SDS011;1292;48.020;7.822;2023-07-20T17:48:14;3.07;;;2.27;;
2564;SDS011;1292;48.020;7.822;2023-07-20T17:50:42;2.20;;;1.83;;
2564;SDS011;1292;48.020;7.822;2023-07-20T17:53:10;2.47;;;2.00;;
2564;SDS011;1292;48.020;7.822;2023-07-20T17:55:37;2.70;;;2.00;;
2564;SDS011;1292;48.020;7.822;2023-07-20T17:58:04;3.20;;;1.50;;
2564;SDS011;1292;48.020;7.822;2023-07-20T18:00:31;1.47;;;1.37;;
2564;SDS011;1292;48.020;7.822;2023-07-20T18:02:58;1.70;;;1.60;;
2564;SDS011;1292;48.020;7.822;2023-07-20T18:05:25;1.90;;;1.80;;
2564;SDS011;1292;48.020;7.822;2023-07-20T18:07:51;1.60;;;1.50;;
2564;SDS011;1292;48.020;7.822;2023-07-20T18:10:20;3.47;;;1.77;;
2564;SDS011;1292;48.020;7.822;2023-07-20T18:12:47;2.30;;;2.10;;
2564;SDS011;1292;48.020;7.822;2023-07-20T18:15:14;4.03;;;2.03;;
2564;SDS011;1292;48.020;7.822;2023-07-20T18:17:41;2.47;;;2.27;;
2564;SDS011;1292;48.020;7.822;2023-07-20T18:20:08;2.90;;;1.87;;
2564;SDS011;1292;48.020;7.822;2023-07-20T18:22:35;3.53;;;1.63;;
2564;SDS011;1292;48.020;7.822;2023-07-20T18:25:03;2.63;;;2.10;;
2564;SDS011;1292;48.020;7.822;2023-07-20T18:27:32;2.50;;;1.67;;
2564;SDS011;1292;48.020;7.822;2023-07-20T18:29:59;2.57;;;2.07;;
2564;SDS011;1292;48.020;7.822;2023-07-20T18:32:26;2.37;;;2.10;;
2564;SDS011;1292;48.020;7.822;2023-07-20T18:34:53;2.20;;;2.00;;
2564;SDS011;1292;48.020;7.822;2023-07-20T18:37:20;1.90;;;1.80;;
2564;SDS011;1292;48.020;7.822;2023-07-20T18:39:49;2.10;;;1.83;;
2564;SDS011;1292;48.020;7.822;2023-07-20T18:42:16;2.27;;;1.87;;
2564;SDS011;1292;48.020;7.822;2023-07-20T18:44:44;2.40;;;2.20;;
2564;SDS011;1292;48.020;7.822;2023-07-20T18:47:12;3.40;;;1.63;;
2564;SDS011;1292;48.020;7.822;2023-07-20T18:49:38;1.97;;;1.80;;
2564;SDS011;1292;48.020;7.822;2023-07-20T18:52:05;1.70;;;1.53;;
2564;SDS011;1292;48.020;7.822;2023-07-20T18:54:32;2.10;;;1.90;;
2564;SDS011;1292;48.020;7.822;2023-07-20T18:56:59;2.03;;;1.93;;
2564;SDS011;1292;48.020;7.822;2023-07-20T18:59:26;7.50;;;1.80;;
2564;SDS011;1292;48.020;7.822;2023-07-20T19:01:54;3.10;;;1.87;;
2564;SDS011;1292;48.020;7.822;2023-07-20T19:04:22;2.40;;;1.50;;
2564;SDS011;1292;48.020;7.822;2023-07-20T19:06:49;2.67;;;2.20;;
2564;SDS011;1292;48.020;7.822;2023-07-20T19:09:16;2.07;;;1.97;;
2564;SDS011;1292;48.020;7.822;2023-07-20T19:11:42;2.97;;;1.90;;
2564;SDS011;1292;48.020;7.822;2023-07-20T19:14:09;2.30;;;1.70;;
2564;SDS011;1292;48.020;7.822;2023-07-20T19:16:36;2.00;;;1.47;;
2564;SDS011;1292;48.020;7.822;2023-07-20T19:19:04;7.30;;;2.00;;
2564;SDS011;1292;48.020;7.822;2023-07-20T19:21:32;2.70;;;1.70;;
2564;SDS011;1292;48.020;7.822;2023-07-20T19:23:58;1.47;;;1.37;;
2564;SDS011;1292;48.020;7.822;2023-07-20T19:26:25;2.77;;;1.63;;
2564;SDS011;1292;48.020;7.822;2023-07-20T19:28:52;2.20;;;2.00;;
2564;SDS011;1292;48.020;7.822;2023-07-20T19:31:20;4.10;;;1.63;;
2564;SDS011;1292;48.020;7.822;2023-07-20T19:33:47;4.67;;;1.63;;
2564;SDS011;1292;48.020;7.822;2023-07-20T19:36:16;3.40;;;1.50;;
2564;SDS011;1292;48.020;7.822;2023-07-20T19:38:44;4.27;;;1.63;;
2564;SDS011;1292;48.020;7.822;2023-07-20T19:41:12;3.27;;;1.90;;
2564;SDS011;1292;48.020;7.822;2023-07-20T19:43:39;3.00;;;2.47;;
2564;SDS011;1292;48.020;7.822;2023-07-20T19:46:08;2.63;;;2.00;;
2564;SDS011;1292;48.020;7.822;2023-07-20T19:48:35;3.87;;;2.97;;
2564;SDS011;1292;48.020;7.822;2023-07-20T19:51:02;3.00;;;2.70;;
2564;SDS011;1292;48.020;7.822;2023-07-20T19:53:31;2.53;;;1.50;;
2564;SDS011;1292;48.020;7.822;2023-07-20T19:55:58;2.97;;;2.00;;
2564;SDS011;1292;48.020;7.822;2023-07-20T19:58:26;3.83;;;2.20;;
2564;SDS011;1292;48.020;7.822;2023-07-20T20:00:53;2.40;;;2.07;;
2564;SDS011;1292;48.020;7.822;2023-07-20T20:03:20;2.87;;;1.80;;
2564;SDS011;1292;48.020;7.822;2023-07-20T20:05:49;3.33;;;2.27;;
2564;SDS011;1292;48.020;7.822;2023-07-20T20:08:16;2.87;;;1.97;;
2564;SDS011;1292;48.020;7.822;2023-07-20T20:10:44;2.80;;;2.10;;
2564;SDS011;1292;48.020;7.822;2023-07-20T20:13:11;2.03;;;1.80;;
2564;SDS011;1292;48.020;7.822;2023-07-20T20:15:39;2.10;;;1.40;;
2564;SDS011;1292;48.020;7.822;2023-07-20T20:18:06;3.60;;;1.93;;
2564;SDS011;1292;48.020;7.822;2023-07-20T20:20:33;1.90;;;1.70;;
2564;SDS011;1292;48.020;7.822;2023-07-20T20:23:06;2.07;;;1.70;;
2564;SDS011;1292;48.020;7.822;2023-07-20T20:25:41;2.13;;;1.50;;
2564;SDS011;1292;48.020;7.822;2023-07-20T20:28:09;2.43;;;2.23;;
2564;SDS011;1292;48.020;7.822;2023-07-20T20:30:41;1.97;;;1.77;;
2564;SDS011;1292;48.020;7.822;2023-07-20T20:33:08;2.33;;;1.83;;
2564;SDS011;1292;48.020;7.822;2023-07-20T20:35:35;2.57;;;2.17;;
2564;SDS011;1292;48.020;7.822;2023-07-20T20:38:06;2.43;;;2.10;;
2564;SDS011;1292;48.020;7.822;2023-07-20T20:40:33;3.57;;;2.20;;
2564;SDS011;1292;48.020;7.822;2023-07-20T20:43:01;2.70;;;2.50;;
2564;SDS011;1292;48.020;7.822;2023-07-20T20:45:32;3.43;;;2.10;;
2564;SDS011;1292;48.020;7.822;2023-07-20T20:47:59;4.03;;;3.37;;
2564;SDS011;1292;48.020;7.822;2023-07-20T20:50:30;2.40;;;2.20;;
2564;SDS011;1292;48.020;7.822;2023-07-20T20:52:57;3.70;;;2.53;;
2564;SDS011;1292;48.020;7.822;2023-07-20T20:55:24;2.23;;;1.97;;
2564;SDS011;1292;48.020;7.822;2023-07-20T20:57:51;6.20;;;2.03;;
2564;SDS011;1292;48.020;7.822;2023-07-20T21:00:21;3.30;;;2.17;;
2564;SDS011;1292;48.020;7.822;2023-07-20T21:02:48;7.43;;;2.23;;
2564;SDS011;1292;48.020;7.822;2023-07-20T21:05:15;2.57;;;2.30;;
2564;SDS011;1292;48.020;7.822;2023-07-20T21:07:42;2.53;;;2.30;;
2564;SDS011;1292;48.020;7.822;2023-07-20T21:10:10;2.20;;;2.00;;
2564;SDS011;1292;48.020;7.822;2023-07-20T21:12:36;2.43;;;1.70;;